sensor_id;sensor_type;location;lat;lon;timestamp;P1;durP1;ratioP1;P2;durP2;ratioP2
52438;SDS011;38359;53.150;6.504;2023-08-01T00:03:49;22.05;;;6.18;;
52438;SDS011;38359;53.150;6.504;2023-08-01T00:14:15;23.13;;;6.65;;
52438;SDS011;38359;53.150;6.504;2023-08-01T00:24:41;19.85;;;7.28;;
52438;SDS011;38359;53.150;6.504;2023-08-01T00:35:13;26.73;;;6.57;;
52438;SDS011;38359;53.150;6.504;2023-08-01T00:45:41;18.13;;;6.68;;
52438;SDS011;38359;53.150;6.504;2023-08-01T00:56:07;14.90;;;5.18;;
52438;SDS011;38359;53.150;6.504;2023-08-01T01:06:51;13.70;;;5.80;;
52438;SDS011;38359;53.150;6.504;2023-08-01T01:17:23;15.27;;;5.60;;
52438;SDS011;38359;53.150;6.504;2023-08-01T01:27:55;18.52;;;5.70;;
52438;SDS011;38359;53.150;6.504;2023-08-01T01:38:22;17.80;;;5.55;;
52438;SDS011;38359;53.150;6.504;2023-08-01T01:48:47;15.05;;;5.13;;
52438;SDS011;38359;53.150;6.504;2023-08-01T01:59:13;20.08;;;5.97;;
52438;SDS011;38359;53.150;6.504;2023-08-01T02:09:39;21.83;;;5.60;;
52438;SDS011;38359;53.150;6.504;2023-08-01T02:20:05;14.00;;;5.88;;
52438;SDS011;38359;53.150;6.504;2023-08-01T02:30:38;22.37;;;6.30;;
52438;SDS011;38359;53.150;6.504;2023-08-01T02:41:10;17.23;;;6.07;;
52438;SDS011;38359;53.150;6.504;2023-08-01T02:51:36;17.17;;;6.88;;
52438;SDS011;38359;53.150;6.504;2023-08-01T03:02:02;18.33;;;6.55;;
52438;SDS011;38359;53.150;6.504;2023-08-01T03:12:28;27.55;;;7.95;;
52438;SDS011;38359;53.150;6.504;2023-08-01T03:23:00;32.08;;;9.65;;
52438;SDS011;38359;53.150;6.504;2023-08-01T03:33:26;26.85;;;9.18;;
52438;SDS011;38359;53.150;6.504;2023-08-01T03:43:52;30.13;;;9.10;;
52438;SDS011;38359;53.150;6.504;2023-08-01T03:54:18;21.40;;;7.38;;
52438;SDS011;38359;53.150;6.504;2023-08-01T04:04:43;22.17;;;5.32;;
52438;SDS011;38359;53.150;6.504;2023-08-01T04:15:09;16.08;;;4.65;;
52438;SDS011;38359;53.150;6.504;2023-08-01T04:25:35;19.10;;;3.83;;
52438;SDS011;38359;53.150;6.504;2023-08-01T04:36:07;21.50;;;4.07;;
52438;SDS011;38359;53.150;6.504;2023-08-01T04:46:33;17.83;;;3.53;;
52438;SDS011;38359;53.150;6.504;2023-08-01T04:56:59;18.05;;;3.03;;
52438;SDS011;38359;53.150;6.504;2023-08-01T05:07:25;10.75;;;2.90;;
52438;SDS011;38359;53.150;6.504;2023-08-01T05:17:52;9.50;;;2.67;;
52438;SDS011;38359;53.150;6.504;2023-08-01T05:28:30;9.17;;;3.10;;
52438;SDS011;38359;53.150;6.504;2023-08-01T05:38:56;12.90;;;3.35;;
52438;SDS011;38359;53.150;6.504;2023-08-01T05:49:22;12.77;;;3.53;;
52438;SDS011;38359;53.150;6.504;2023-08-01T05:59:48;11.82;;;3.55;;
52438;SDS011;38359;53.150;6.504;2023-08-01T06:10:14;10.63;;;3.38;;
52438;SDS011;38359;53.150;6.504;2023-08-01T06:20:40;8.27;;;3.30;;
52438;SDS011;38359;53.150;6.504;2023-08-01T06:31:12;11.77;;;3.00;;
52438;SDS011;38359;53.150;6.504;2023-08-01T06:41:37;11.80;;;3.15;;
52438;SDS011;38359;53.150;6.504;2023-08-01T06:52:03;8.13;;;2.38;;
52438;SDS011;38359;53.150;6.504;2023-08-01T07:02:30;12.77;;;2.25;;
52438;SDS011;38359;53.150;6.504;2023-08-01T07:12:55;11.07;;;1.77;;
52438;SDS011;38359;53.150;6.504;2023-08-01T07:23:21;13.77;;;1.90;;
52438;SDS011;38359;53.150;6.504;2023-08-01T07:33:54;13.47;;;2.60;;
52438;SDS011;38359;53.150;6.504;2023-08-01T07:44:20;12.15;;;2.25;;
52438;SDS011;38359;53.150;6.504;2023-08-01T07:54:45;8.48;;;2.05;;
52438;SDS011;38359;53.150;6.504;2023-08-01T08:05:11;15.75;;;2.10;;
52438;SDS011;38359;53.150;6.504;2023-08-01T08:15:37;10.90;;;2.20;;
52438;SDS011;38359;53.150;6.504;2023-08-01T08:26:10;13.95;;;2.50;;
52438;SDS011;38359;53.150;6.504;2023-08-01T08:36:36;8.45;;;1.70;;
52438;SDS011;38359;53.150;6.504;2023-08-01T08:47:02;13.88;;;2.50;;
52438;SDS011;38359;53.150;6.504;2023-08-01T08:57:29;13.05;;;2.50;;
52438;SDS011;38359;53.150;6.504;2023-08-01T09:07:56;10.93;;;2.40;;
52438;SDS011;38359;53.150;6.504;2023-08-01T09:18:26;9.75;;;2.28;;
52438;SDS011;38359;53.150;6.504;2023-08-01T09:28:56;6.57;;;1.67;;
52438;SDS011;38359;53.150;6.504;2023-08-01T09:39:29;4.90;;;1.23;;
52438;SDS011;38359;53.150;6.504;2023-08-01T09:49:55;7.22;;;1.88;;
52438;SDS011;38359;53.150;6.504;2023-08-01T10:00:21;6.20;;;1.50;;
52438;SDS011;38359;53.150;6.504;2023-08-01T10:10:47;5.00;;;1.38;;
52438;SDS011;38359;53.150;6.504;2023-08-01T10:21:14;13.15;;;1.90;;
52438;SDS011;38359;53.150;6.504;2023-08-01T10:31:52;9.77;;;2.10;;
52438;SDS011;38359;53.150;6.504;2023-08-01T10:42:20;9.05;;;2.13;;
52438;SDS011;38359;53.150;6.504;2023-08-01T10:52:46;8.05;;;1.35;;
52438;SDS011;38359;53.150;6.504;2023-08-01T11:03:12;9.20;;;1.80;;
52438;SDS011;38359;53.150;6.504;2023-08-01T11:13:52;6.10;;;1.60;;
52438;SDS011;38359;53.150;6.504;2023-08-01T11:24:27;9.48;;;1.83;;
52438;SDS011;38359;53.150;6.504;2023-08-01T11:34:53;9.10;;;1.48;;
52438;SDS011;38359;53.150;6.504;2023-08-01T11:45:19;14.30;;;1.50;;
52438;SDS011;38359;53.150;6.504;2023-08-01T11:55:53;8.68;;;1.20;;
52438;SDS011;38359;53.150;6.504;2023-08-01T12:06:39;9.40;;;1.55;;
52438;SDS011;38359;53.150;6.504;2023-08-01T12:17:12;14.27;;;1.90;;
52438;SDS011;38359;53.150;6.504;2023-08-01T12:27:38;12.30;;;1.90;;
52438;SDS011;38359;53.150;6.504;2023-08-01T12:38:10;6.90;;;1.53;;
52438;SDS011;38359;53.150;6.504;2023-08-01T12:48:36;7.25;;;1.42;;
52438;SDS011;38359;53.150;6.504;2023-08-01T12:59:02;7.25;;;1.42;;
52438;SDS011;38359;53.150;6.504;2023-08-01T13:09:28;11.82;;;2.15;;
52438;SDS011;38359;53.150;6.504;2023-08-01T13:20:00;8.30;;;1.58;;
52438;SDS011;38359;53.150;6.504;2023-08-01T13:30:32;10.48;;;2.00;;
52438;SDS011;38359;53.150;6.504;2023-08-01T13:41:04;10.80;;;1.98;;
52438;SDS011;38359;53.150;6.504;2023-08-01T13:51:33;8.68;;;1.77;;
52438;SDS011;38359;53.150;6.504;2023-08-01T14:01:59;8.40;;;1.75;;
52438;SDS011;38359;53.150;6.504;2023-08-01T14:12:25;9.35;;;1.63;;
52438;SDS011;38359;53.150;6.504;2023-08-01T14:22:57;8.38;;;1.42;;
52438;SDS011;38359;53.150;6.504;2023-08-01T14:33:23;11.30;;;2.00;;
52438;SDS011;38359;53.150;6.504;2023-08-01T14:43:49;7.88;;;1.63;;
52438;SDS011;38359;53.150;6.504;2023-08-01T14:54:15;9.48;;;1.58;;
52438;SDS011;38359;53.150;6.504;2023-08-01T15:04:41;5.40;;;1.45;;
52438;SDS011;38359;53.150;6.504;2023-08-01T15:15:07;13.30;;;2.22;;
52438;SDS011;38359;53.150;6.504;2023-08-01T15:25:34;5.80;;;1.40;;
52438;SDS011;38359;53.150;6.504;2023-08-01T15:36:07;7.13;;;2.03;;
52438;SDS011;38359;53.150;6.504;2023-08-01T15:46:33;7.10;;;1.63;;
52438;SDS011;38359;53.150;6.504;2023-08-01T15:56:59;7.30;;;1.58;;
52438;SDS011;38359;53.150;6.504;2023-08-01T16:07:25;10.15;;;1.48;;
52438;SDS011;38359;53.150;6.504;2023-08-01T16:17:51;4.78;;;1.27;;
52438;SDS011;38359;53.150;6.504;2023-08-01T16:28:17;4.43;;;1.38;;
52438;SDS011;38359;53.150;6.504;2023-08-01T16:38:50;6.05;;;1.00;;
52438;SDS011;38359;53.150;6.504;2023-08-01T16:49:16;9.43;;;1.33;;
52438;SDS011;38359;53.150;6.504;2023-08-01T16:59:42;8.15;;;1.20;;
52438;SDS011;38359;53.150;6.504;2023-08-01T17:10:08;8.18;;;1.60;;
52438;SDS011;38359;53.150;6.504;2023-08-01T17:20:41;9.93;;;1.20;;
52438;SDS011;38359;53.150;6.504;2023-08-01T17:31:13;12.07;;;1.42;;
52438;SDS011;38359;53.150;6.504;2023-08-01T17:41:45;14.27;;;1.85;;
52438;SDS011;38359;53.150;6.504;2023-08-01T17:52:17;13.38;;;1.88;;
52438;SDS011;38359;53.150;6.504;2023-08-01T18:02:49;12.43;;;1.80;;
52438;SDS011;38359;53.150;6.504;2023-08-01T18:13:15;9.18;;;1.60;;
52438;SDS011;38359;53.150;6.504;2023-08-01T18:23:40;8.25;;;1.42;;
52438;SDS011;38359;53.150;6.504;2023-08-01T18:34:13;12.40;;;2.00;;
52438;SDS011;38359;53.150;6.504;2023-08-01T18:44:39;9.77;;;2.05;;
52438;SDS011;38359;53.150;6.504;2023-08-01T18:55:04;13.80;;;2.97;;
52438;SDS011;38359;53.150;6.504;2023-08-01T19:05:30;12.63;;;2.30;;
52438;SDS011;38359;53.150;6.504;2023-08-01T19:15:57;12.40;;;1.83;;
52438;SDS011;38359;53.150;6.504;2023-08-01T19:26:31;9.48;;;2.20;;
52438;SDS011;38359;53.150;6.504;2023-08-01T19:36:57;12.35;;;2.00;;
52438;SDS011;38359;53.150;6.504;2023-08-01T19:47:23;9.50;;;2.30;;
52438;SDS011;38359;53.150;6.504;2023-08-01T19:57:50;12.93;;;2.70;;
52438;SDS011;38359;53.150;6.504;2023-08-01T20:08:15;14.15;;;2.70;;
52438;SDS011;38359;53.150;6.504;2023-08-01T20:18:41;14.27;;;2.63;;
52438;SDS011;38359;53.150;6.504;2023-08-01T20:29:07;13.30;;;2.60;;
52438;SDS011;38359;53.150;6.504;2023-08-01T20:39:39;12.98;;;2.15;;
52438;SDS011;38359;53.150;6.504;2023-08-01T20:50:05;13.07;;;2.25;;
52438;SDS011;38359;53.150;6.504;2023-08-01T21:00:32;10.00;;;2.40;;
52438;SDS011;38359;53.150;6.504;2023-08-01T21:10:57;10.57;;;2.28;;
52438;SDS011;38359;53.150;6.504;2023-08-01T21:21:23;7.82;;;1.73;;
52438;SDS011;38359;53.150;6.504;2023-08-01T21:32:04;12.05;;;1.92;;
52438;SDS011;38359;53.150;6.504;2023-08-01T21:42:30;12.47;;;2.10;;
52438;SDS011;38359;53.150;6.504;2023-08-01T21:52:56;5.22;;;1.30;;
52438;SDS011;38359;53.150;6.504;2023-08-01T22:03:22;5.88;;;1.23;;
52438;SDS011;38359;53.150;6.504;2023-08-01T22:13:48;6.10;;;1.33;;
52438;SDS011;38359;53.150;6.504;2023-08-01T22:24:14;5.22;;;1.55;;
52438;SDS011;38359;53.150;6.504;2023-08-01T22:34:46;4.95;;;1.40;;
52438;SDS011;38359;53.150;6.504;2023-08-01T22:45:12;4.93;;;1.50;;
52438;SDS011;38359;53.150;6.504;2023-08-01T22:55:44;5.60;;;1.13;;
52438;SDS011;38359;53.150;6.504;2023-08-01T23:06:11;3.95;;;1.48;;
52438;SDS011;38359;53.150;6.504;2023-08-01T23:16:38;5.72;;;1.98;;
52438;SDS011;38359;53.150;6.504;2023-08-01T23:27:03;6.20;;;1.58;;
52438;SDS011;38359;53.150;6.504;2023-08-01T23:37:35;6.75;;;1.55;;
52438;SDS011;38359;53.150;6.504;2023-08-01T23:48:01;9.38;;;1.83;;
52438;SDS011;38359;53.150;6.504;2023-08-01T23:58:27;8.40;;;2.50;;
